createdAt,value
2023-03-31T00:03:29.314Z,2.30
2023-03-31T00:08:36.143Z,2.10
2023-03-31T00:13:40.786Z,2.40
2023-03-31T00:18:47.955Z,1.90
2023-03-31T00:24:01.221Z,2.10
2023-03-31T00:29:09.200Z,2.40
2023-03-31T00:34:13.429Z,2.00
2023-03-31T00:39:19.490Z,2.10
2023-03-31T00:44:29.643Z,2.20
2023-03-31T00:49:38.718Z,2.50
2023-03-31T00:54:45.189Z,3.10
2023-03-31T00:59:54.190Z,2.30
2023-03-31T01:05:02.666Z,2.90
2023-03-31T01:10:09.280Z,3.30
2023-03-31T01:15:16.528Z,3.40
2023-03-31T01:21:04.164Z,3.50
2023-03-31T01:26:57.867Z,4.40
2023-03-31T01:32:39.780Z,4.40
2023-03-31T01:38:25.251Z,3.50
2023-03-31T01:43:37.548Z,3.40
2023-03-31T02:15:58.347Z,3.10
2023-03-31T02:21:02.128Z,4.90
2023-03-31T02:26:10.923Z,3.10
2023-03-31T02:31:45.020Z,4.00
2023-03-31T02:36:49.253Z,4.70
2023-03-31T02:41:52.940Z,4.20
2023-03-31T02:46:57.087Z,4.80
2023-03-31T02:52:13.037Z,4.80
2023-03-31T02:58:08.180Z,4.60
2023-03-31T03:03:31.753Z,5.30
2023-03-31T03:09:23.334Z,4.90
2023-03-31T03:14:38.830Z,5.20
2023-03-31T03:19:43.939Z,5.30
2023-03-31T03:24:47.808Z,5.90
2023-03-31T03:29:52.261Z,6.50
2023-03-31T03:34:56.314Z,6.50
2023-03-31T03:40:00.066Z,6.90
2023-03-31T03:45:05.438Z,6.60
2023-03-31T03:50:10.945Z,7.20
2023-03-31T03:55:14.864Z,7.40
2023-03-31T04:00:19.106Z,7.00
2023-03-31T04:05:23.185Z,6.90
2023-03-31T04:10:27.244Z,6.90
2023-03-31T04:15:31.660Z,8.00
2023-03-31T04:20:38.139Z,7.40
2023-03-31T04:25:46.632Z,6.80
2023-03-31T04:30:50.421Z,7.90
2023-03-31T04:35:55.237Z,7.50
2023-03-31T04:40:58.973Z,7.60
2023-03-31T04:46:02.860Z,9.00
2023-03-31T04:51:07.485Z,7.70
2023-03-31T04:56:11.644Z,8.40
2023-03-31T05:01:18.620Z,15.10
2023-03-31T05:06:22.490Z,13.40
2023-03-31T05:11:26.934Z,12.60
2023-03-31T05:16:31.732Z,10.20
2023-03-31T05:21:36.509Z,8.60
2023-03-31T05:26:41.510Z,9.60
2023-03-31T05:31:46.143Z,9.80
2023-03-31T05:36:51.649Z,9.50
2023-03-31T05:41:55.338Z,10.60
2023-03-31T05:46:59.094Z,10.60
2023-03-31T05:52:03.467Z,11.50
2023-03-31T05:57:09.342Z,11.40
2023-03-31T06:02:14.691Z,9.50
2023-03-31T06:07:19.648Z,9.50
2023-03-31T06:12:23.617Z,8.10
2023-03-31T06:17:29.451Z,26.10
2023-03-31T06:22:33.716Z,27.10
2023-03-31T06:27:37.415Z,13.60
2023-03-31T06:32:43.164Z,5.80
2023-03-31T06:37:47.144Z,5.90
2023-03-31T06:42:52.646Z,4.90
2023-03-31T06:47:57.372Z,6.00
2023-03-31T06:53:01.871Z,5.20
2023-03-31T06:58:06.288Z,5.30
2023-03-31T07:03:10.062Z,5.40
2023-03-31T07:08:13.921Z,5.00
2023-03-31T07:13:18.335Z,5.50
2023-03-31T07:18:26.517Z,6.80
2023-03-31T07:23:30.402Z,4.90
2023-03-31T07:28:34.224Z,5.10
2023-03-31T07:33:37.936Z,5.10
2023-03-31T07:38:43.949Z,5.90
2023-03-31T07:43:48.439Z,5.20
2023-03-31T07:48:53.566Z,5.40
2023-03-31T07:53:57.556Z,5.00
2023-03-31T07:59:01.245Z,4.70
2023-03-31T08:04:05.349Z,4.90
2023-03-31T08:09:09.110Z,5.40
2023-03-31T08:14:12.848Z,5.40
2023-03-31T08:19:16.905Z,5.00
2023-03-31T08:24:20.908Z,5.70
2023-03-31T08:29:24.593Z,6.00
2023-03-31T08:34:28.765Z,6.30
2023-03-31T08:39:32.897Z,5.60
2023-03-31T08:44:47.448Z,5.90
2023-03-31T08:49:59.185Z,4.90
2023-03-31T08:55:08.069Z,5.00
2023-03-31T09:00:19.462Z,4.70
2023-03-31T09:05:59.292Z,5.20
2023-03-31T09:11:23.378Z,4.90
2023-03-31T09:16:36.942Z,4.60
2023-03-31T09:21:45.809Z,4.50
2023-03-31T09:26:55.299Z,4.10
2023-03-31T09:32:21.089Z,4.40
2023-03-31T09:37:28.829Z,5.70
2023-03-31T09:42:32.629Z,3.40
2023-03-31T09:47:40.642Z,3.60
2023-03-31T09:52:49.360Z,2.90
2023-03-31T09:57:54.182Z,3.00
2023-03-31T10:03:04.438Z,3.30
2023-03-31T10:08:11.198Z,2.90
2023-03-31T10:13:18.349Z,2.90
2023-03-31T10:18:24.129Z,3.60
2023-03-31T10:23:30.661Z,3.00
2023-03-31T10:28:35.954Z,3.40
2023-03-31T10:33:47.042Z,2.90
2023-03-31T10:38:52.332Z,3.40
2023-03-31T10:44:00.835Z,3.30
2023-03-31T10:49:15.810Z,3.20
2023-03-31T10:54:20.458Z,2.60
2023-03-31T10:59:52.203Z,2.20
2023-03-31T11:05:16.410Z,2.40
2023-03-31T11:10:33.122Z,2.60
2023-03-31T11:16:08.168Z,2.30
2023-03-31T11:21:44.403Z,2.80
2023-03-31T11:27:25.994Z,2.60
2023-03-31T11:38:01.938Z,2.40
2023-03-31T11:43:42.773Z,2.20
2023-03-31T11:48:57.650Z,2.20
2023-03-31T11:54:05.121Z,2.50
2023-03-31T11:59:13.915Z,1.70
2023-03-31T12:04:30.698Z,2.90
2023-03-31T12:10:05.717Z,3.50
2023-03-31T12:15:15.100Z,3.50
2023-03-31T12:20:42.761Z,2.10
2023-03-31T12:25:52.561Z,1.90
2023-03-31T12:30:57.424Z,2.20
2023-03-31T12:36:16.645Z,1.90
2023-03-31T12:41:56.923Z,1.60
2023-03-31T12:47:24.764Z,1.60
2023-03-31T12:52:41.387Z,1.80
2023-03-31T12:57:45.137Z,1.90
2023-03-31T13:02:50.262Z,2.30
2023-03-31T13:07:54.326Z,2.10
2023-03-31T13:13:02.781Z,2.00
2023-03-31T13:18:07.877Z,2.10
2023-03-31T13:23:23.569Z,2.00
2023-03-31T13:28:47.442Z,1.90
2023-03-31T13:34:02.552Z,2.60
2023-03-31T13:39:12.807Z,5.30
2023-03-31T13:44:29.861Z,2.80
2023-03-31T13:49:45.014Z,3.30
2023-03-31T13:55:03.853Z,6.20
2023-03-31T14:00:47.194Z,2.80
2023-03-31T14:06:01.830Z,2.40
2023-03-31T14:11:19.004Z,2.50
2023-03-31T14:16:22.796Z,3.20
2023-03-31T14:21:34.365Z,3.10
2023-03-31T14:26:47.801Z,3.20
2023-03-31T14:32:06.697Z,3.80
2023-03-31T14:37:14.749Z,4.10
2023-03-31T14:42:20.633Z,4.90
2023-03-31T14:47:29.011Z,2.90
2023-03-31T14:52:33.861Z,3.70
2023-03-31T14:57:40.032Z,5.50
2023-03-31T15:02:45.997Z,4.90
2023-03-31T15:07:50.185Z,5.30
2023-03-31T15:12:54.027Z,4.90
2023-03-31T15:17:57.954Z,5.00
2023-03-31T15:23:07.064Z,4.50
2023-03-31T15:28:12.889Z,4.30
2023-03-31T15:33:24.223Z,5.10
2023-03-31T15:38:28.924Z,5.10
2023-03-31T15:43:48.821Z,4.50
2023-03-31T15:48:56.333Z,3.70
2023-03-31T15:54:00.128Z,4.40
2023-03-31T15:59:07.965Z,3.80
2023-03-31T16:04:13.781Z,3.40
2023-03-31T16:09:24.837Z,2.50
2023-03-31T16:14:31.740Z,3.00
2023-03-31T16:19:59.204Z,3.10
2023-03-31T16:25:03.799Z,2.90
2023-03-31T16:30:17.034Z,2.60
2023-03-31T16:35:21.303Z,2.90
2023-03-31T16:40:25.227Z,2.30
2023-03-31T16:45:29.095Z,2.30
2023-03-31T16:50:33.586Z,2.40
2023-03-31T16:55:38.069Z,2.70
2023-03-31T17:00:43.119Z,2.50
2023-03-31T17:05:49.168Z,2.30
2023-03-31T17:10:56.298Z,2.90
2023-03-31T17:16:13.078Z,2.70
2023-03-31T17:21:25.488Z,2.70
2023-03-31T17:26:29.703Z,3.00
2023-03-31T17:31:34.056Z,3.90
2023-03-31T17:36:39.311Z,3.30
2023-03-31T17:41:45.968Z,3.60
2023-03-31T17:46:51.300Z,3.50
2023-03-31T17:51:57.764Z,3.40
2023-03-31T17:57:02.875Z,4.30
2023-03-31T18:02:07.612Z,4.60
2023-03-31T18:07:13.472Z,5.30
2023-03-31T18:12:18.243Z,6.30
2023-03-31T18:17:26.103Z,5.80
2023-03-31T18:22:34.050Z,7.30
2023-03-31T18:27:39.613Z,8.70
2023-03-31T18:32:44.816Z,7.00
2023-03-31T18:37:49.533Z,6.20
2023-03-31T18:42:55.784Z,5.00
2023-03-31T18:48:01.197Z,4.10
2023-03-31T18:53:07.928Z,3.80
2023-03-31T18:58:14.513Z,3.90
2023-03-31T19:03:20.147Z,3.40
2023-03-31T19:08:28.407Z,4.10
2023-03-31T19:13:35.598Z,4.40
2023-03-31T19:18:43.096Z,4.70
2023-03-31T19:23:48.613Z,3.90
2023-03-31T19:28:57.451Z,4.20
2023-03-31T19:34:12.235Z,4.20
2023-03-31T19:39:19.045Z,3.70
2023-03-31T19:44:27.382Z,4.10
2023-03-31T19:49:32.946Z,4.30
2023-03-31T19:54:40.792Z,5.20
2023-03-31T19:59:47.767Z,5.40
2023-03-31T20:04:55.752Z,5.40
2023-03-31T20:10:02.468Z,5.70
2023-03-31T20:15:08.660Z,5.30
2023-03-31T20:20:13.925Z,5.60
2023-03-31T20:25:18.847Z,5.60
2023-03-31T20:30:24.416Z,6.00
2023-03-31T20:35:29.708Z,6.70
2023-03-31T20:40:37.218Z,5.90
2023-03-31T20:45:42.618Z,5.20
2023-03-31T20:50:47.743Z,5.20
2023-03-31T20:55:52.915Z,5.90
2023-03-31T21:00:59.325Z,4.60
2023-03-31T21:06:11.426Z,3.70
2023-03-31T21:11:16.069Z,3.40
2023-03-31T21:16:21.842Z,2.70
2023-03-31T21:21:27.151Z,2.40
2023-03-31T21:26:31.703Z,1.80
2023-03-31T21:31:36.542Z,1.40
2023-03-31T21:36:40.611Z,1.60
2023-03-31T21:41:44.433Z,1.40
2023-03-31T21:46:48.453Z,1.30
2023-03-31T21:51:52.888Z,1.20
2023-03-31T21:56:56.660Z,1.60
2023-03-31T22:02:00.451Z,1.30
2023-03-31T22:07:05.146Z,1.30
2023-03-31T22:12:09.337Z,1.10
2023-03-31T22:17:13.150Z,1.00
2023-03-31T22:22:17.203Z,1.40
2023-03-31T22:27:21.232Z,2.20
2023-03-31T22:32:25.324Z,1.80
2023-03-31T22:37:29.491Z,1.70
2023-03-31T22:42:33.226Z,2.20
2023-03-31T22:47:36.947Z,1.50
2023-03-31T22:52:40.774Z,1.90
2023-03-31T22:57:45.634Z,1.70
2023-03-31T23:02:49.512Z,1.40
2023-03-31T23:07:53.595Z,1.60
2023-03-31T23:12:58.031Z,2.80
2023-03-31T23:18:01.846Z,1.60
2023-03-31T23:23:05.745Z,1.70
2023-03-31T23:28:09.598Z,2.20
2023-03-31T23:33:13.458Z,2.20
2023-03-31T23:38:17.629Z,2.30
2023-03-31T23:43:21.555Z,2.50
2023-03-31T23:48:25.471Z,2.30
2023-03-31T23:53:29.722Z,2.20
2023-03-31T23:58:33.925Z,2.30
